sensor_id;sensor_type;location;lat;lon;timestamp;temperature;humidity
54461;DHT22;69977;49.414;11.010;2023-05-07T00:00:20;11.90;99.90
54461;DHT22;69977;49.414;11.010;2023-05-07T00:02:46;12.00;99.90
54461;DHT22;69977;49.414;11.010;2023-05-07T00:05:12;12.00;99.90
54461;DHT22;69977;49.414;11.010;2023-05-07T00:07:38;12.10;99.90
54461;DHT22;69977;49.414;11.010;2023-05-07T00:10:04;11.90;99.90
54461;DHT22;69977;49.414;11.010;2023-05-07T00:12:32;12.10;99.90
54461;DHT22;69977;49.414;11.010;2023-05-07T00:15:01;12.00;99.90
54461;DHT22;69977;49.414;11.010;2023-05-07T00:17:27;12.10;99.90
54461;DHT22;69977;49.414;11.010;2023-05-07T00:19:52;12.10;99.90
54461;DHT22;69977;49.414;11.010;2023-05-07T00:22:18;12.20;99.90
54461;DHT22;69977;49.414;11.010;2023-05-07T00:24:44;12.10;99.90
54461;DHT22;69977;49.414;11.010;2023-05-07T00:27:10;12.00;99.90
54461;DHT22;69977;49.414;11.010;2023-05-07T00:29:35;12.00;99.90
54461;DHT22;69977;49.414;11.010;2023-05-07T00:32:02;12.10;99.90
54461;DHT22;69977;49.414;11.010;2023-05-07T00:34:27;12.10;99.90
54461;DHT22;69977;49.414;11.010;2023-05-07T00:36:53;12.20;99.90
54461;DHT22;69977;49.414;11.010;2023-05-07T00:39:19;12.30;99.90
54461;DHT22;69977;49.414;11.010;2023-05-07T00:41:45;12.40;99.90
54461;DHT22;69977;49.414;11.010;2023-05-07T00:44:11;12.10;99.90
54461;DHT22;69977;49.414;11.010;2023-05-07T00:46:37;12.00;99.90
54461;DHT22;69977;49.414;11.010;2023-05-07T00:49:03;12.10;99.90
54461;DHT22;69977;49.414;11.010;2023-05-07T00:51:31;12.30;99.90
54461;DHT22;69977;49.414;11.010;2023-05-07T00:53:59;12.30;99.90
54461;DHT22;69977;49.414;11.010;2023-05-07T00:56:26;12.30;99.90
54461;DHT22;69977;49.414;11.010;2023-05-07T00:58:52;12.20;99.90
54461;DHT22;69977;49.414;11.010;2023-05-07T01:01:18;12.20;99.90
54461;DHT22;69977;49.414;11.010;2023-05-07T01:03:44;12.20;99.90
54461;DHT22;69977;49.414;11.010;2023-05-07T01:06:10;12.30;99.90
54461;DHT22;69977;49.414;11.010;2023-05-07T01:08:39;12.40;99.90
54461;DHT22;69977;49.414;11.010;2023-05-07T01:11:06;12.40;99.90
54461;DHT22;69977;49.414;11.010;2023-05-07T01:13:34;12.40;99.90
54461;DHT22;69977;49.414;11.010;2023-05-07T01:16:00;12.20;99.90
54461;DHT22;69977;49.414;11.010;2023-05-07T01:18:26;12.10;99.90
54461;DHT22;69977;49.414;11.010;2023-05-07T01:20:52;12.20;99.90
54461;DHT22;69977;49.414;11.010;2023-05-07T01:23:20;12.40;99.90
54461;DHT22;69977;49.414;11.010;2023-05-07T01:25:55;12.50;99.90
54461;DHT22;69977;49.414;11.010;2023-05-07T01:28:23;12.50;99.90
54461;DHT22;69977;49.414;11.010;2023-05-07T01:30:54;12.40;99.90
54461;DHT22;69977;49.414;11.010;2023-05-07T01:33:22;12.20;99.90
54461;DHT22;69977;49.414;11.010;2023-05-07T01:35:52;12.10;99.90
54461;DHT22;69977;49.414;11.010;2023-05-07T01:38:19;12.20;99.90
54461;DHT22;69977;49.414;11.010;2023-05-07T01:40:46;12.10;99.90
54461;DHT22;69977;49.414;11.010;2023-05-07T01:43:13;12.20;99.90
54461;DHT22;69977;49.414;11.010;2023-05-07T01:45:39;12.20;99.90
54461;DHT22;69977;49.414;11.010;2023-05-07T01:48:07;12.30;99.90
54461;DHT22;69977;49.414;11.010;2023-05-07T01:50:34;12.40;99.90
54461;DHT22;69977;49.414;11.010;2023-05-07T01:53:01;12.20;99.90
54461;DHT22;69977;49.414;11.010;2023-05-07T01:55:28;12.40;99.90
54461;DHT22;69977;49.414;11.010;2023-05-07T01:57:54;12.30;99.90
54461;DHT22;69977;49.414;11.010;2023-05-07T02:00:20;12.20;99.90
54461;DHT22;69977;49.414;11.010;2023-05-07T02:02:45;12.30;99.90
54461;DHT22;69977;49.414;11.010;2023-05-07T02:05:31;12.30;99.90
54461;DHT22;69977;49.414;11.010;2023-05-07T02:08:02;12.10;99.90
54461;DHT22;69977;49.414;11.010;2023-05-07T02:10:30;12.20;99.90
54461;DHT22;69977;49.414;11.010;2023-05-07T02:12:55;12.00;99.90
54461;DHT22;69977;49.414;11.010;2023-05-07T02:15:21;11.90;99.90
54461;DHT22;69977;49.414;11.010;2023-05-07T02:18:01;12.00;99.90
54461;DHT22;69977;49.414;11.010;2023-05-07T02:20:27;11.90;99.90
54461;DHT22;69977;49.414;11.010;2023-05-07T02:22:53;12.20;99.90
54461;DHT22;69977;49.414;11.010;2023-05-07T02:25:19;12.20;99.90
54461;DHT22;69977;49.414;11.010;2023-05-07T02:27:44;12.10;99.90
54461;DHT22;69977;49.414;11.010;2023-05-07T02:30:11;11.80;99.90
54461;DHT22;69977;49.414;11.010;2023-05-07T02:32:37;11.70;99.90
54461;DHT22;69977;49.414;11.010;2023-05-07T02:35:03;11.70;99.90
54461;DHT22;69977;49.414;11.010;2023-05-07T02:37:29;11.70;99.90
54461;DHT22;69977;49.414;11.010;2023-05-07T02:39:56;11.60;99.90
54461;DHT22;69977;49.414;11.010;2023-05-07T02:42:21;11.60;99.90
54461;DHT22;69977;49.414;11.010;2023-05-07T02:44:47;11.70;99.90
54461;DHT22;69977;49.414;11.010;2023-05-07T02:47:15;11.60;99.90
54461;DHT22;69977;49.414;11.010;2023-05-07T02:49:42;11.40;99.90
54461;DHT22;69977;49.414;11.010;2023-05-07T02:52:08;11.50;99.90
54461;DHT22;69977;49.414;11.010;2023-05-07T02:54:34;11.50;99.90
54461;DHT22;69977;49.414;11.010;2023-05-07T02:56:59;11.40;99.90
54461;DHT22;69977;49.414;11.010;2023-05-07T02:59:26;11.40;99.90
54461;DHT22;69977;49.414;11.010;2023-05-07T03:01:52;11.30;99.90
54461;DHT22;69977;49.414;11.010;2023-05-07T03:04:18;11.50;99.90
54461;DHT22;69977;49.414;11.010;2023-05-07T03:06:44;11.40;99.90
54461;DHT22;69977;49.414;11.010;2023-05-07T03:09:10;11.50;99.90
54461;DHT22;69977;49.414;11.010;2023-05-07T03:11:36;11.40;99.90
54461;DHT22;69977;49.414;11.010;2023-05-07T03:14:02;11.30;99.90
54461;DHT22;69977;49.414;11.010;2023-05-07T03:16:28;11.10;99.90
54461;DHT22;69977;49.414;11.010;2023-05-07T03:18:53;10.90;99.90
54461;DHT22;69977;49.414;11.010;2023-05-07T03:21:19;10.90;99.90
54461;DHT22;69977;49.414;11.010;2023-05-07T03:23:45;10.90;99.90
54461;DHT22;69977;49.414;11.010;2023-05-07T03:26:11;11.10;99.90
54461;DHT22;69977;49.414;11.010;2023-05-07T03:28:37;10.80;99.90
54461;DHT22;69977;49.414;11.010;2023-05-07T03:31:06;10.90;99.90
54461;DHT22;69977;49.414;11.010;2023-05-07T03:33:49;11.10;99.90
54461;DHT22;69977;49.414;11.010;2023-05-07T03:36:15;11.10;99.90
54461;DHT22;69977;49.414;11.010;2023-05-07T03:38:41;11.10;99.90
54461;DHT22;69977;49.414;11.010;2023-05-07T03:41:06;11.10;99.90
54461;DHT22;69977;49.414;11.010;2023-05-07T03:43:33;10.90;99.90
54461;DHT22;69977;49.414;11.010;2023-05-07T03:46:05;10.80;99.90
54461;DHT22;69977;49.414;11.010;2023-05-07T03:48:30;10.80;99.90
54461;DHT22;69977;49.414;11.010;2023-05-07T03:50:58;10.90;99.90
54461;DHT22;69977;49.414;11.010;2023-05-07T03:53:28;11.00;99.90
54461;DHT22;69977;49.414;11.010;2023-05-07T03:55:54;11.00;99.90
54461;DHT22;69977;49.414;11.010;2023-05-07T03:58:20;11.10;99.90
54461;DHT22;69977;49.414;11.010;2023-05-07T04:00:46;10.90;99.90
54461;DHT22;69977;49.414;11.010;2023-05-07T04:03:21;10.80;99.90
54461;DHT22;69977;49.414;11.010;2023-05-07T04:05:48;10.80;99.90
54461;DHT22;69977;49.414;11.010;2023-05-07T04:08:14;10.60;99.90
54461;DHT22;69977;49.414;11.010;2023-05-07T04:10:44;10.50;99.90
54461;DHT22;69977;49.414;11.010;2023-05-07T04:13:10;10.60;99.90
54461;DHT22;69977;49.414;11.010;2023-05-07T04:15:37;10.80;99.90
54461;DHT22;69977;49.414;11.010;2023-05-07T04:18:05;10.90;99.90
54461;DHT22;69977;49.414;11.010;2023-05-07T04:20:34;11.10;99.90
54461;DHT22;69977;49.414;11.010;2023-05-07T04:23:02;11.00;99.90
54461;DHT22;69977;49.414;11.010;2023-05-07T04:25:29;11.30;99.90
54461;DHT22;69977;49.414;11.010;2023-05-07T04:28:01;11.10;99.90
54461;DHT22;69977;49.414;11.010;2023-05-07T04:30:28;11.00;99.90
54461;DHT22;69977;49.414;11.010;2023-05-07T04:32:54;11.00;99.90
54461;DHT22;69977;49.414;11.010;2023-05-07T04:35:21;11.20;99.90
54461;DHT22;69977;49.414;11.010;2023-05-07T04:37:47;11.20;99.90
54461;DHT22;69977;49.414;11.010;2023-05-07T04:40:13;11.20;99.90
54461;DHT22;69977;49.414;11.010;2023-05-07T04:42:40;11.30;99.90
54461;DHT22;69977;49.414;11.010;2023-05-07T04:45:07;11.40;99.90
54461;DHT22;69977;49.414;11.010;2023-05-07T04:47:34;11.50;99.90
54461;DHT22;69977;49.414;11.010;2023-05-07T04:50:01;11.70;99.90
54461;DHT22;69977;49.414;11.010;2023-05-07T04:52:27;11.70;99.90
54461;DHT22;69977;49.414;11.010;2023-05-07T04:54:53;11.70;99.90
54461;DHT22;69977;49.414;11.010;2023-05-07T04:57:19;11.90;99.90
54461;DHT22;69977;49.414;11.010;2023-05-07T04:59:45;12.10;99.90
54461;DHT22;69977;49.414;11.010;2023-05-07T05:02:11;12.10;99.90
54461;DHT22;69977;49.414;11.010;2023-05-07T05:04:37;12.10;99.90
54461;DHT22;69977;49.414;11.010;2023-05-07T05:07:04;12.10;99.90
54461;DHT22;69977;49.414;11.010;2023-05-07T05:09:30;12.20;99.90
54461;DHT22;69977;49.414;11.010;2023-05-07T05:11:56;12.30;99.90
54461;DHT22;69977;49.414;11.010;2023-05-07T05:14:22;12.50;99.90
54461;DHT22;69977;49.414;11.010;2023-05-07T05:16:49;12.60;99.90
54461;DHT22;69977;49.414;11.010;2023-05-07T05:19:15;12.60;99.90
54461;DHT22;69977;49.414;11.010;2023-05-07T05:21:42;12.70;99.90
54461;DHT22;69977;49.414;11.010;2023-05-07T05:24:09;12.70;99.90
54461;DHT22;69977;49.414;11.010;2023-05-07T05:26:35;12.80;99.90
54461;DHT22;69977;49.414;11.010;2023-05-07T05:29:02;12.90;99.90
54461;DHT22;69977;49.414;11.010;2023-05-07T05:31:30;13.00;99.90
54461;DHT22;69977;49.414;11.010;2023-05-07T05:33:55;13.10;99.90
54461;DHT22;69977;49.414;11.010;2023-05-07T05:36:21;13.20;99.90
54461;DHT22;69977;49.414;11.010;2023-05-07T05:38:49;13.20;99.90
54461;DHT22;69977;49.414;11.010;2023-05-07T05:41:16;13.30;99.90
54461;DHT22;69977;49.414;11.010;2023-05-07T05:43:41;13.40;99.90
54461;DHT22;69977;49.414;11.010;2023-05-07T05:46:07;13.50;99.90
54461;DHT22;69977;49.414;11.010;2023-05-07T05:48:34;13.50;99.90
54461;DHT22;69977;49.414;11.010;2023-05-07T05:51:02;13.60;99.90
54461;DHT22;69977;49.414;11.010;2023-05-07T05:53:28;13.70;99.90
54461;DHT22;69977;49.414;11.010;2023-05-07T05:55:54;13.80;99.90
54461;DHT22;69977;49.414;11.010;2023-05-07T05:58:19;13.90;99.90
54461;DHT22;69977;49.414;11.010;2023-05-07T06:00:51;13.90;99.90
54461;DHT22;69977;49.414;11.010;2023-05-07T06:03:20;14.00;99.90
54461;DHT22;69977;49.414;11.010;2023-05-07T06:05:46;14.10;99.90
54461;DHT22;69977;49.414;11.010;2023-05-07T06:08:13;14.10;99.90
54461;DHT22;69977;49.414;11.010;2023-05-07T06:10:39;14.20;99.90
54461;DHT22;69977;49.414;11.010;2023-05-07T06:13:07;14.30;99.90
54461;DHT22;69977;49.414;11.010;2023-05-07T06:15:34;14.30;99.90
54461;DHT22;69977;49.414;11.010;2023-05-07T06:18:04;14.40;99.90
54461;DHT22;69977;49.414;11.010;2023-05-07T06:20:30;14.50;99.90
54461;DHT22;69977;49.414;11.010;2023-05-07T06:22:58;14.50;99.90
54461;DHT22;69977;49.414;11.010;2023-05-07T06:25:24;14.50;99.90
54461;DHT22;69977;49.414;11.010;2023-05-07T06:27:50;14.60;99.90
54461;DHT22;69977;49.414;11.010;2023-05-07T06:30:16;14.70;99.90
54461;DHT22;69977;49.414;11.010;2023-05-07T06:32:42;14.70;99.90
54461;DHT22;69977;49.414;11.010;2023-05-07T06:35:08;14.80;99.90
54461;DHT22;69977;49.414;11.010;2023-05-07T06:37:36;14.90;99.90
54461;DHT22;69977;49.414;11.010;2023-05-07T06:40:06;15.00;99.90
54461;DHT22;69977;49.414;11.010;2023-05-07T06:42:36;15.00;99.90
54461;DHT22;69977;49.414;11.010;2023-05-07T06:45:21;15.10;99.90
54461;DHT22;69977;49.414;11.010;2023-05-07T06:47:46;15.20;99.90
54461;DHT22;69977;49.414;11.010;2023-05-07T06:50:13;15.30;99.90
54461;DHT22;69977;49.414;11.010;2023-05-07T06:52:39;15.50;99.90
54461;DHT22;69977;49.414;11.010;2023-05-07T06:55:06;15.60;99.90
54461;DHT22;69977;49.414;11.010;2023-05-07T06:57:32;15.70;99.90
54461;DHT22;69977;49.414;11.010;2023-05-07T06:59:57;15.70;99.90
54461;DHT22;69977;49.414;11.010;2023-05-07T07:02:23;15.70;99.90
54461;DHT22;69977;49.414;11.010;2023-05-07T07:04:49;15.70;99.90
54461;DHT22;69977;49.414;11.010;2023-05-07T07:07:16;15.70;99.90
54461;DHT22;69977;49.414;11.010;2023-05-07T07:09:44;16.00;99.90
54461;DHT22;69977;49.414;11.010;2023-05-07T07:12:13;15.90;99.90
54461;DHT22;69977;49.414;11.010;2023-05-07T07:14:41;16.00;99.90
54461;DHT22;69977;49.414;11.010;2023-05-07T07:17:07;16.00;99.90
54461;DHT22;69977;49.414;11.010;2023-05-07T07:19:33;16.10;99.90
54461;DHT22;69977;49.414;11.010;2023-05-07T07:22:02;16.20;99.90
54461;DHT22;69977;49.414;11.010;2023-05-07T07:24:28;16.30;99.90
54461;DHT22;69977;49.414;11.010;2023-05-07T07:26:57;16.40;99.90
54461;DHT22;69977;49.414;11.010;2023-05-07T07:29:25;16.50;99.90
54461;DHT22;69977;49.414;11.010;2023-05-07T07:31:52;16.60;99.90
54461;DHT22;69977;49.414;11.010;2023-05-07T07:34:19;16.70;99.90
54461;DHT22;69977;49.414;11.010;2023-05-07T07:36:45;16.90;99.90
54461;DHT22;69977;49.414;11.010;2023-05-07T07:39:12;17.00;99.90
54461;DHT22;69977;49.414;11.010;2023-05-07T07:41:38;17.00;99.90
54461;DHT22;69977;49.414;11.010;2023-05-07T07:44:04;17.00;99.90
54461;DHT22;69977;49.414;11.010;2023-05-07T07:46:34;17.00;99.90
54461;DHT22;69977;49.414;11.010;2023-05-07T07:49:00;17.10;99.90
54461;DHT22;69977;49.414;11.010;2023-05-07T07:51:26;17.20;99.90
54461;DHT22;69977;49.414;11.010;2023-05-07T07:53:53;17.40;99.90
54461;DHT22;69977;49.414;11.010;2023-05-07T07:56:19;17.40;99.90
54461;DHT22;69977;49.414;11.010;2023-05-07T07:58:45;17.50;99.90
54461;DHT22;69977;49.414;11.010;2023-05-07T08:01:11;17.60;99.90
54461;DHT22;69977;49.414;11.010;2023-05-07T08:03:39;17.70;99.90
54461;DHT22;69977;49.414;11.010;2023-05-07T08:06:05;17.70;99.90
54461;DHT22;69977;49.414;11.010;2023-05-07T08:08:33;17.80;99.90
54461;DHT22;69977;49.414;11.010;2023-05-07T08:10:59;17.90;99.90
54461;DHT22;69977;49.414;11.010;2023-05-07T08:13:30;18.00;99.90
54461;DHT22;69977;49.414;11.010;2023-05-07T08:15:56;17.90;99.90
54461;DHT22;69977;49.414;11.010;2023-05-07T08:18:22;17.90;99.90
54461;DHT22;69977;49.414;11.010;2023-05-07T08:20:50;18.00;99.90
54461;DHT22;69977;49.414;11.010;2023-05-07T08:23:21;17.90;99.90
54461;DHT22;69977;49.414;11.010;2023-05-07T08:25:48;18.00;99.90
54461;DHT22;69977;49.414;11.010;2023-05-07T08:28:15;18.30;99.90
54461;DHT22;69977;49.414;11.010;2023-05-07T08:30:41;18.30;99.90
54461;DHT22;69977;49.414;11.010;2023-05-07T08:33:08;18.20;99.90
54461;DHT22;69977;49.414;11.010;2023-05-07T08:35:35;18.20;99.90
54461;DHT22;69977;49.414;11.010;2023-05-07T08:38:01;18.30;99.90
54461;DHT22;69977;49.414;11.010;2023-05-07T08:40:28;18.40;99.90
54461;DHT22;69977;49.414;11.010;2023-05-07T08:42:57;18.40;99.90
54461;DHT22;69977;49.414;11.010;2023-05-07T08:45:24;18.30;99.90
54461;DHT22;69977;49.414;11.010;2023-05-07T08:48:01;18.40;99.90
54461;DHT22;69977;49.414;11.010;2023-05-07T08:50:32;18.60;99.90
54461;DHT22;69977;49.414;11.010;2023-05-07T08:53:03;18.50;99.90
54461;DHT22;69977;49.414;11.010;2023-05-07T08:55:28;18.50;99.90
54461;DHT22;69977;49.414;11.010;2023-05-07T08:57:55;18.80;99.90
54461;DHT22;69977;49.414;11.010;2023-05-07T09:00:22;18.90;99.90
54461;DHT22;69977;49.414;11.010;2023-05-07T09:02:50;19.00;99.90
54461;DHT22;69977;49.414;11.010;2023-05-07T09:05:16;19.10;99.90
54461;DHT22;69977;49.414;11.010;2023-05-07T09:07:42;19.10;99.90
54461;DHT22;69977;49.414;11.010;2023-05-07T09:10:09;19.10;99.90
54461;DHT22;69977;49.414;11.010;2023-05-07T09:12:37;19.20;99.90
54461;DHT22;69977;49.414;11.010;2023-05-07T09:15:06;19.40;99.90
54461;DHT22;69977;49.414;11.010;2023-05-07T09:17:32;19.40;99.90
54461;DHT22;69977;49.414;11.010;2023-05-07T09:20:05;19.10;99.90
54461;DHT22;69977;49.414;11.010;2023-05-07T09:22:37;19.10;99.90
54461;DHT22;69977;49.414;11.010;2023-05-07T09:25:07;18.90;99.90
54461;DHT22;69977;49.414;11.010;2023-05-07T09:27:35;19.00;99.90
54461;DHT22;69977;49.414;11.010;2023-05-07T09:30:06;19.10;99.90
54461;DHT22;69977;49.414;11.010;2023-05-07T09:32:35;19.00;99.90
54461;DHT22;69977;49.414;11.010;2023-05-07T09:35:02;19.00;99.90
54461;DHT22;69977;49.414;11.010;2023-05-07T09:37:30;19.00;99.90
54461;DHT22;69977;49.414;11.010;2023-05-07T09:39:56;19.00;99.90
54461;DHT22;69977;49.414;11.010;2023-05-07T09:42:24;19.00;99.90
54461;DHT22;69977;49.414;11.010;2023-05-07T09:44:53;19.10;99.90
54461;DHT22;69977;49.414;11.010;2023-05-07T09:47:24;19.10;99.90
54461;DHT22;69977;49.414;11.010;2023-05-07T09:49:56;19.10;99.90
54461;DHT22;69977;49.414;11.010;2023-05-07T09:52:25;19.10;99.90
54461;DHT22;69977;49.414;11.010;2023-05-07T09:54:55;19.10;99.90
54461;DHT22;69977;49.414;11.010;2023-05-07T09:57:26;19.20;99.90
54461;DHT22;69977;49.414;11.010;2023-05-07T09:59:58;19.40;99.90
54461;DHT22;69977;49.414;11.010;2023-05-07T10:02:30;19.50;99.90
54461;DHT22;69977;49.414;11.010;2023-05-07T10:04:57;19.60;99.90
54461;DHT22;69977;49.414;11.010;2023-05-07T10:07:29;19.80;99.90
54461;DHT22;69977;49.414;11.010;2023-05-07T10:10:00;19.90;99.90
54461;DHT22;69977;49.414;11.010;2023-05-07T10:12:32;19.90;99.90
54461;DHT22;69977;49.414;11.010;2023-05-07T10:15:06;19.80;99.90
54461;DHT22;69977;49.414;11.010;2023-05-07T10:17:39;19.90;99.90
54461;DHT22;69977;49.414;11.010;2023-05-07T10:20:06;20.10;99.90
54461;DHT22;69977;49.414;11.010;2023-05-07T10:22:41;20.30;99.90
54461;DHT22;69977;49.414;11.010;2023-05-07T10:25:18;20.70;99.90
54461;DHT22;69977;49.414;11.010;2023-05-07T10:27:46;20.70;99.90
54461;DHT22;69977;49.414;11.010;2023-05-07T10:32:51;20.50;99.90
54461;DHT22;69977;49.414;11.010;2023-05-07T10:35:29;21.30;99.90
54461;DHT22;69977;49.414;11.010;2023-05-07T10:37:58;22.60;99.90
54461;DHT22;69977;49.414;11.010;2023-05-07T10:40:27;24.20;99.90
54461;DHT22;69977;49.414;11.010;2023-05-07T10:43:02;24.90;99.90
54461;DHT22;69977;49.414;11.010;2023-05-07T10:45:35;24.70;99.90
54461;DHT22;69977;49.414;11.010;2023-05-07T10:50:42;24.40;99.90
54461;DHT22;69977;49.414;11.010;2023-05-07T10:58:47;26.30;98.60
54461;DHT22;69977;49.414;11.010;2023-05-07T11:01:50;27.20;96.40
54461;DHT22;69977;49.414;11.010;2023-05-07T11:04:18;27.30;96.70
54461;DHT22;69977;49.414;11.010;2023-05-07T11:15:34;24.20;99.90
54461;DHT22;69977;49.414;11.010;2023-05-07T11:18:02;24.50;99.40
54461;DHT22;69977;49.414;11.010;2023-05-07T11:26:10;27.40;94.50
54461;DHT22;69977;49.414;11.010;2023-05-07T11:28:39;25.40;97.20
54461;DHT22;69977;49.414;11.010;2023-05-07T11:31:05;24.30;99.90
54461;DHT22;69977;49.414;11.010;2023-05-07T11:33:31;25.30;99.20
54461;DHT22;69977;49.414;11.010;2023-05-07T11:36:00;26.60;96.70
54461;DHT22;69977;49.414;11.010;2023-05-07T11:38:36;27.90;93.80
54461;DHT22;69977;49.414;11.010;2023-05-07T11:41:02;28.50;91.90
54461;DHT22;69977;49.414;11.010;2023-05-07T11:43:31;27.70;91.80
54461;DHT22;69977;49.414;11.010;2023-05-07T11:46:09;27.10;92.60
54461;DHT22;69977;49.414;11.010;2023-05-07T11:48:35;26.70;90.80
54461;DHT22;69977;49.414;11.010;2023-05-07T11:51:03;26.80;91.00
54461;DHT22;69977;49.414;11.010;2023-05-07T11:53:40;27.50;90.00
54461;DHT22;69977;49.414;11.010;2023-05-07T11:56:10;27.10;91.60
54461;DHT22;69977;49.414;11.010;2023-05-07T11:58:37;26.20;93.20
54461;DHT22;69977;49.414;11.010;2023-05-07T12:01:03;25.00;94.00
54461;DHT22;69977;49.414;11.010;2023-05-07T12:03:29;24.20;94.70
54461;DHT22;69977;49.414;11.010;2023-05-07T12:05:55;23.80;96.80
54461;DHT22;69977;49.414;11.010;2023-05-07T12:08:21;23.90;99.00
54461;DHT22;69977;49.414;11.010;2023-05-07T12:10:49;24.00;97.90
54461;DHT22;69977;49.414;11.010;2023-05-07T12:13:20;23.90;97.90
54461;DHT22;69977;49.414;11.010;2023-05-07T12:15:47;23.90;99.60
54461;DHT22;69977;49.414;11.010;2023-05-07T12:18:15;23.80;99.90
54461;DHT22;69977;49.414;11.010;2023-05-07T12:20:42;23.90;99.00
54461;DHT22;69977;49.414;11.010;2023-05-07T12:23:08;23.80;99.00
54461;DHT22;69977;49.414;11.010;2023-05-07T12:25:38;23.70;99.10
54461;DHT22;69977;49.414;11.010;2023-05-07T12:28:04;23.70;99.90
54461;DHT22;69977;49.414;11.010;2023-05-07T12:30:37;23.50;98.60
54461;DHT22;69977;49.414;11.010;2023-05-07T12:33:03;23.60;98.30
54461;DHT22;69977;49.414;11.010;2023-05-07T12:35:36;23.50;98.30
54461;DHT22;69977;49.414;11.010;2023-05-07T12:38:02;23.30;99.80
54461;DHT22;69977;49.414;11.010;2023-05-07T12:40:40;23.80;99.80
54461;DHT22;69977;49.414;11.010;2023-05-07T12:43:07;23.80;99.90
54461;DHT22;69977;49.414;11.010;2023-05-07T12:45:37;24.30;99.90
54461;DHT22;69977;49.414;11.010;2023-05-07T12:48:06;24.70;97.70
54461;DHT22;69977;49.414;11.010;2023-05-07T12:50:32;24.40;98.00
54461;DHT22;69977;49.414;11.010;2023-05-07T12:52:58;24.30;96.70
54461;DHT22;69977;49.414;11.010;2023-05-07T12:55:25;24.70;97.30
54461;DHT22;69977;49.414;11.010;2023-05-07T12:57:51;25.40;96.50
54461;DHT22;69977;49.414;11.010;2023-05-07T13:00:38;26.50;94.00
54461;DHT22;69977;49.414;11.010;2023-05-07T13:03:05;27.40;92.10
54461;DHT22;69977;49.414;11.010;2023-05-07T13:05:31;27.80;92.50
54461;DHT22;69977;49.414;11.010;2023-05-07T13:07:58;28.10;90.60
54461;DHT22;69977;49.414;11.010;2023-05-07T13:10:24;27.80;90.80
54461;DHT22;69977;49.414;11.010;2023-05-07T13:12:51;27.60;90.80
54461;DHT22;69977;49.414;11.010;2023-05-07T13:15:17;27.30;91.20
54461;DHT22;69977;49.414;11.010;2023-05-07T13:17:43;27.60;91.10
54461;DHT22;69977;49.414;11.010;2023-05-07T13:20:10;27.80;89.40
54461;DHT22;69977;49.414;11.010;2023-05-07T13:22:37;28.60;90.10
54461;DHT22;69977;49.414;11.010;2023-05-07T13:25:02;29.20;84.70
54461;DHT22;69977;49.414;11.010;2023-05-07T13:27:28;29.70;81.40
54461;DHT22;69977;49.414;11.010;2023-05-07T13:29:56;29.40;82.10
54461;DHT22;69977;49.414;11.010;2023-05-07T13:32:22;28.80;81.70
54461;DHT22;69977;49.414;11.010;2023-05-07T13:34:48;27.60;86.20
54461;DHT22;69977;49.414;11.010;2023-05-07T13:37:14;26.50;87.90
54461;DHT22;69977;49.414;11.010;2023-05-07T13:39:39;25.90;90.60
54461;DHT22;69977;49.414;11.010;2023-05-07T13:42:06;25.40;91.90
54461;DHT22;69977;49.414;11.010;2023-05-07T13:44:32;24.90;91.50
54461;DHT22;69977;49.414;11.010;2023-05-07T13:46:58;24.40;92.50
54461;DHT22;69977;49.414;11.010;2023-05-07T13:49:24;24.20;93.50
54461;DHT22;69977;49.414;11.010;2023-05-07T13:51:50;24.00;94.10
54461;DHT22;69977;49.414;11.010;2023-05-07T13:54:16;24.10;94.80
54461;DHT22;69977;49.414;11.010;2023-05-07T13:56:42;24.10;94.90
54461;DHT22;69977;49.414;11.010;2023-05-07T13:59:08;24.00;94.50
54461;DHT22;69977;49.414;11.010;2023-05-07T14:01:33;24.20;93.30
54461;DHT22;69977;49.414;11.010;2023-05-07T14:03:59;24.10;94.50
54461;DHT22;69977;49.414;11.010;2023-05-07T14:06:25;24.00;94.60
54461;DHT22;69977;49.414;11.010;2023-05-07T14:08:51;23.90;94.20
54461;DHT22;69977;49.414;11.010;2023-05-07T14:11:17;24.10;94.10
54461;DHT22;69977;49.414;11.010;2023-05-07T14:13:43;24.20;93.60
54461;DHT22;69977;49.414;11.010;2023-05-07T14:16:09;24.10;94.50
54461;DHT22;69977;49.414;11.010;2023-05-07T14:18:34;23.90;93.50
54461;DHT22;69977;49.414;11.010;2023-05-07T14:21:04;23.80;94.10
54461;DHT22;69977;49.414;11.010;2023-05-07T14:23:31;23.80;94.60
54461;DHT22;69977;49.414;11.010;2023-05-07T14:25:57;23.80;95.80
54461;DHT22;69977;49.414;11.010;2023-05-07T14:28:23;23.80;95.00
54461;DHT22;69977;49.414;11.010;2023-05-07T14:30:49;23.80;94.90
54461;DHT22;69977;49.414;11.010;2023-05-07T14:33:15;23.90;95.70
54461;DHT22;69977;49.414;11.010;2023-05-07T14:35:41;23.80;94.40
54461;DHT22;69977;49.414;11.010;2023-05-07T14:38:10;23.70;94.60
54461;DHT22;69977;49.414;11.010;2023-05-07T14:40:36;23.80;95.20
54461;DHT22;69977;49.414;11.010;2023-05-07T14:43:02;23.70;95.90
54461;DHT22;69977;49.414;11.010;2023-05-07T14:45:27;23.60;96.10
54461;DHT22;69977;49.414;11.010;2023-05-07T14:47:53;23.40;97.10
54461;DHT22;69977;49.414;11.010;2023-05-07T14:50:19;23.20;97.20
54461;DHT22;69977;49.414;11.010;2023-05-07T14:52:45;23.20;96.90
54461;DHT22;69977;49.414;11.010;2023-05-07T14:55:12;23.10;96.00
54461;DHT22;69977;49.414;11.010;2023-05-07T14:57:38;23.10;96.70
54461;DHT22;69977;49.414;11.010;2023-05-07T15:00:04;22.90;98.80
54461;DHT22;69977;49.414;11.010;2023-05-07T15:02:30;22.80;98.70
54461;DHT22;69977;49.414;11.010;2023-05-07T15:04:56;22.80;99.40
54461;DHT22;69977;49.414;11.010;2023-05-07T15:07:22;22.80;99.70
54461;DHT22;69977;49.414;11.010;2023-05-07T15:09:47;22.80;99.50
54461;DHT22;69977;49.414;11.010;2023-05-07T15:12:13;22.90;99.40
54461;DHT22;69977;49.414;11.010;2023-05-07T15:14:39;22.90;99.00
54461;DHT22;69977;49.414;11.010;2023-05-07T15:17:05;22.90;98.70
54461;DHT22;69977;49.414;11.010;2023-05-07T15:19:30;23.00;98.50
54461;DHT22;69977;49.414;11.010;2023-05-07T15:21:58;23.10;98.70
54461;DHT22;69977;49.414;11.010;2023-05-07T15:24:28;23.30;97.80
54461;DHT22;69977;49.414;11.010;2023-05-07T15:26:54;23.50;98.20
54461;DHT22;69977;49.414;11.010;2023-05-07T15:29:20;23.50;97.60
54461;DHT22;69977;49.414;11.010;2023-05-07T15:31:46;23.70;97.20
54461;DHT22;69977;49.414;11.010;2023-05-07T15:34:12;24.00;96.80
54461;DHT22;69977;49.414;11.010;2023-05-07T15:36:40;24.40;96.90
54461;DHT22;69977;49.414;11.010;2023-05-07T15:39:06;24.20;96.40
54461;DHT22;69977;49.414;11.010;2023-05-07T15:41:32;23.90;96.60